createdAt,value
2022-09-21T00:01:29.278Z,14.80
2022-09-21T00:03:59.329Z,14.80
2022-09-21T00:06:30.881Z,14.80
2022-09-21T00:08:58.510Z,14.80
2022-09-21T00:11:28.397Z,14.80
2022-09-21T00:13:59.845Z,14.80
2022-09-21T00:16:27.414Z,14.80
2022-09-21T00:18:54.440Z,14.80
2022-09-21T00:21:22.002Z,14.90
2022-09-21T00:23:49.293Z,14.80
2022-09-21T00:26:18.949Z,14.80
2022-09-21T00:28:46.655Z,14.90
2022-09-21T00:31:17.692Z,14.80
2022-09-21T00:33:44.812Z,14.80
2022-09-21T00:36:19.337Z,14.80
2022-09-21T00:38:50.597Z,14.80
2022-09-21T00:41:18.176Z,14.80
2022-09-21T00:44:11.512Z,14.80
2022-09-21T00:46:40.241Z,14.80
2022-09-21T00:49:07.779Z,14.80
2022-09-21T00:51:36.187Z,14.80
2022-09-21T00:54:13.042Z,14.80
2022-09-21T00:56:40.137Z,14.80
2022-09-21T00:59:08.025Z,14.80
2022-09-21T01:01:38.364Z,14.80
2022-09-21T01:04:07.175Z,14.80
2022-09-21T01:06:36.975Z,14.80
2022-09-21T01:09:04.249Z,14.80
2022-09-21T01:11:43.057Z,14.80
2022-09-21T01:14:28.865Z,14.80
2022-09-21T01:17:07.042Z,14.80
2022-09-21T01:19:46.145Z,14.70
2022-09-21T01:22:54.915Z,14.80
2022-09-21T01:25:40.567Z,14.80
2022-09-21T01:28:12.238Z,14.80
2022-09-21T01:30:46.972Z,14.70
2022-09-21T01:33:26.297Z,14.70
2022-09-21T01:36:09.387Z,14.70
2022-09-21T01:38:45.579Z,14.70
2022-09-21T01:41:16.300Z,14.70
2022-09-21T01:43:47.730Z,14.70
2022-09-21T01:46:19.837Z,14.70
2022-09-21T01:48:52.031Z,14.70
2022-09-21T01:51:21.970Z,14.70
2022-09-21T01:53:56.801Z,14.60
2022-09-21T01:56:40.844Z,14.60
2022-09-21T01:59:27.377Z,14.60
2022-09-21T02:01:58.923Z,14.60
2022-09-21T02:04:26.251Z,14.60
2022-09-21T02:06:54.979Z,14.60
2022-09-21T02:09:23.529Z,14.60
2022-09-21T02:11:50.323Z,14.50
2022-09-21T02:14:22.561Z,14.50
2022-09-21T02:16:56.310Z,14.50
2022-09-21T02:19:36.929Z,14.50
2022-09-21T02:22:17.181Z,14.50
2022-09-21T02:24:48.041Z,14.50
2022-09-21T02:27:34.541Z,14.50
2022-09-21T02:30:21.380Z,14.50
2022-09-21T02:33:27.188Z,14.40
2022-09-21T02:36:21.110Z,14.40
2022-09-21T02:38:56.894Z,14.30
2022-09-21T02:41:30.256Z,14.30
2022-09-21T02:44:06.549Z,14.30
2022-09-21T02:46:46.173Z,14.30
2022-09-21T02:49:18.847Z,14.30
2022-09-21T02:51:49.786Z,14.30
2022-09-21T02:54:25.444Z,14.30
2022-09-21T02:56:54.116Z,14.30
2022-09-21T02:59:24.585Z,14.30
2022-09-21T03:01:52.609Z,14.30
2022-09-21T03:04:20.466Z,14.30
2022-09-21T03:06:48.306Z,14.30
2022-09-21T03:09:15.262Z,14.20
2022-09-21T03:11:43.405Z,14.30
2022-09-21T03:14:33.258Z,14.20
2022-09-21T03:17:20.112Z,14.20
2022-09-21T03:20:04.509Z,14.20
2022-09-21T03:22:53.317Z,14.20
2022-09-21T03:25:25.300Z,14.20
2022-09-21T03:28:05.661Z,14.20
2022-09-21T03:30:38.976Z,14.20
2022-09-21T03:33:37.049Z,14.20
2022-09-21T03:36:14.678Z,14.20
2022-09-21T03:38:46.764Z,14.20
2022-09-21T03:41:39.730Z,14.20
2022-09-21T03:44:30.812Z,14.20
2022-09-21T03:47:04.681Z,14.10
2022-09-21T03:49:32.495Z,14.10
2022-09-21T03:51:59.761Z,14.10
2022-09-21T03:54:29.704Z,14.10
2022-09-21T03:56:56.962Z,14.10
2022-09-21T03:59:30.118Z,14.10
2022-09-21T04:02:12.649Z,14.10
2022-09-21T04:04:48.312Z,14.10
2022-09-21T04:07:18.318Z,14.10
2022-09-21T04:09:45.566Z,14.10
2022-09-21T04:12:13.005Z,14.10
2022-09-21T04:14:40.618Z,14.10
2022-09-21T04:17:07.913Z,14.10
2022-09-21T04:19:35.062Z,14.10
2022-09-21T04:22:02.037Z,14.00
2022-09-21T04:24:28.959Z,14.00
2022-09-21T04:26:56.055Z,14.00
2022-09-21T04:29:28.059Z,14.00
2022-09-21T04:31:55.623Z,14.00
2022-09-21T04:34:27.662Z,14.00
2022-09-21T04:36:58.490Z,14.00
2022-09-21T04:39:26.517Z,14.00
2022-09-21T04:41:53.818Z,14.00
2022-09-21T04:44:30.754Z,14.00
2022-09-21T04:47:08.381Z,13.90
2022-09-21T04:49:39.957Z,13.90
2022-09-21T04:52:14.778Z,13.90
2022-09-21T04:54:45.652Z,13.90
2022-09-21T04:57:15.712Z,13.90
2022-09-21T04:59:43.265Z,13.90
2022-09-21T05:02:13.575Z,13.90
2022-09-21T05:04:46.422Z,13.90
2022-09-21T05:07:16.683Z,13.90
2022-09-21T05:10:05.539Z,13.90
2022-09-21T05:12:40.747Z,13.90
2022-09-21T05:15:11.522Z,13.90
2022-09-21T05:17:41.390Z,14.00
2022-09-21T05:20:12.087Z,14.00
2022-09-21T05:22:39.460Z,14.00
2022-09-21T05:25:07.870Z,14.00
2022-09-21T05:27:36.334Z,14.00
2022-09-21T05:30:19.220Z,14.00
2022-09-21T05:33:06.426Z,14.00
2022-09-21T05:35:46.074Z,14.00
2022-09-21T05:38:18.397Z,14.00
2022-09-21T05:40:53.424Z,14.00
2022-09-21T05:43:24.511Z,14.00
2022-09-21T05:46:18.762Z,14.00
2022-09-21T05:49:08.099Z,14.00
2022-09-21T05:51:50.418Z,14.00
2022-09-21T05:54:29.759Z,14.00
2022-09-21T05:57:12.785Z,14.00
2022-09-21T06:00:11.029Z,14.00
2022-09-21T06:02:55.643Z,14.00
2022-09-21T06:05:23.234Z,14.00
2022-09-21T06:07:50.636Z,14.00
2022-09-21T06:10:18.156Z,14.00
2022-09-21T06:12:45.174Z,14.00
2022-09-21T06:15:14.091Z,14.00
2022-09-21T06:17:41.167Z,14.00
2022-09-21T06:20:09.066Z,14.00
2022-09-21T06:22:36.166Z,14.00
2022-09-21T06:25:03.328Z,14.00
2022-09-21T06:27:30.304Z,14.10
2022-09-21T06:29:57.309Z,14.10
2022-09-21T06:32:24.315Z,14.10
2022-09-21T06:34:51.399Z,14.10
2022-09-21T06:37:18.516Z,14.10
2022-09-21T06:39:45.424Z,14.10
2022-09-21T06:42:15.251Z,14.10
2022-09-21T06:44:42.437Z,14.10
2022-09-21T06:47:09.701Z,14.10
2022-09-21T06:49:41.740Z,14.10
2022-09-21T06:52:09.530Z,14.10
2022-09-21T06:54:37.072Z,14.10
2022-09-21T06:57:04.166Z,14.10
2022-09-21T06:59:31.157Z,14.20
2022-09-21T07:01:58.553Z,14.20
2022-09-21T07:04:25.743Z,14.20
2022-09-21T07:06:52.858Z,14.20
2022-09-21T07:12:08.030Z,14.30
2022-09-21T07:14:35.013Z,14.30
2022-09-21T07:17:02.460Z,14.30
2022-09-21T07:19:29.392Z,14.30
2022-09-21T07:21:56.374Z,14.40
2022-09-21T07:24:23.359Z,14.40
2022-09-21T07:26:50.602Z,14.40
2022-09-21T07:29:17.469Z,14.40
2022-09-21T07:31:45.172Z,14.40
2022-09-21T07:34:12.360Z,14.50
2022-09-21T07:36:39.299Z,14.50
2022-09-21T07:39:09.416Z,14.50
2022-09-21T07:41:36.710Z,14.50
2022-09-21T07:44:08.092Z,14.60
2022-09-21T07:46:37.022Z,14.60
2022-09-21T07:49:05.904Z,14.60
2022-09-21T07:51:32.883Z,14.60
2022-09-21T07:54:37.441Z,14.60
2022-09-21T07:57:23.007Z,14.60
2022-09-21T07:59:50.306Z,14.70
2022-09-21T08:02:17.300Z,14.70
2022-09-21T08:04:44.386Z,14.70
2022-09-21T08:07:11.319Z,14.70
2022-09-21T08:09:38.691Z,14.70
2022-09-21T08:12:05.645Z,14.80
2022-09-21T08:14:32.770Z,14.90
2022-09-21T08:16:59.621Z,14.90
2022-09-21T08:19:26.670Z,15.00
2022-09-21T08:21:57.463Z,15.10
2022-09-21T08:24:28.523Z,15.20
2022-09-21T08:26:56.129Z,15.30
2022-09-21T08:29:24.741Z,15.40
2022-09-21T08:31:53.499Z,15.50
2022-09-21T08:34:21.133Z,15.60
2022-09-21T08:36:51.764Z,15.70
2022-09-21T08:39:21.837Z,15.80
2022-09-21T08:41:59.164Z,15.90
2022-09-21T08:44:48.679Z,16.00
2022-09-21T08:47:57.323Z,16.00
2022-09-21T08:50:33.907Z,16.30
2022-09-21T08:53:21.852Z,16.50
2022-09-21T08:55:48.892Z,16.70
2022-09-21T08:58:23.394Z,17.00
2022-09-21T09:01:19.892Z,17.30
2022-09-21T09:04:14.455Z,17.70
2022-09-21T09:06:56.297Z,18.00
2022-09-21T09:09:41.712Z,18.40
2022-09-21T09:12:11.503Z,18.80
2022-09-21T09:14:44.698Z,19.10
2022-09-21T09:17:25.606Z,19.40
2022-09-21T09:19:58.719Z,19.70
2022-09-21T09:22:31.822Z,20.00
2022-09-21T09:25:06.209Z,20.30
2022-09-21T09:27:41.440Z,20.50
2022-09-21T09:30:17.256Z,20.60
2022-09-21T09:32:53.905Z,20.60
2022-09-21T09:35:47.021Z,20.70
2022-09-21T09:38:19.928Z,20.90
2022-09-21T09:41:05.643Z,21.00
2022-09-21T09:44:14.471Z,21.10
2022-09-21T09:46:52.030Z,21.40
2022-09-21T09:49:30.780Z,21.50
2022-09-21T09:51:58.147Z,21.60
2022-09-21T09:54:27.931Z,21.70
2022-09-21T09:56:55.253Z,21.60
2022-09-21T09:59:22.349Z,21.50
2022-09-21T10:02:00.932Z,21.40
2022-09-21T10:04:28.209Z,21.40
2022-09-21T10:06:55.109Z,21.30
2022-09-21T10:09:25.209Z,21.30
2022-09-21T10:11:55.278Z,21.30
2022-09-21T10:14:25.225Z,21.20
2022-09-21T10:16:53.513Z,21.30
2022-09-21T10:19:26.341Z,21.50
2022-09-21T10:21:59.315Z,22.00
2022-09-21T10:24:39.155Z,22.40
2022-09-21T10:27:12.003Z,23.00
2022-09-21T10:29:46.547Z,23.40
2022-09-21T10:32:14.712Z,23.90
2022-09-21T10:35:00.853Z,24.40
2022-09-21T10:37:29.047Z,24.80
2022-09-21T10:39:57.199Z,25.20
2022-09-21T10:42:24.255Z,25.50
2022-09-21T10:44:53.518Z,25.80
2022-09-21T10:47:35.932Z,26.20
2022-09-21T10:50:07.800Z,26.50
2022-09-21T10:52:40.805Z,26.80
2022-09-21T10:55:19.787Z,27.20
2022-09-21T10:57:47.950Z,27.50
2022-09-21T11:00:23.698Z,27.80
2022-09-21T11:02:51.082Z,28.00
2022-09-21T11:05:42.305Z,27.90
2022-09-21T11:08:18.312Z,27.70
2022-09-21T11:11:03.434Z,27.60
2022-09-21T11:13:39.670Z,27.30
2022-09-21T11:16:15.625Z,26.80
2022-09-21T11:19:14.703Z,26.40
2022-09-21T11:21:51.954Z,25.90
2022-09-21T11:24:46.713Z,25.40
2022-09-21T11:27:27.452Z,24.90
2022-09-21T11:30:11.639Z,24.40
2022-09-21T11:33:16.914Z,23.90
2022-09-21T11:36:34.528Z,23.60
2022-09-21T11:39:04.417Z,23.20
2022-09-21T11:41:50.108Z,22.90
2022-09-21T11:44:55.883Z,22.60
2022-09-21T11:47:50.755Z,22.30
2022-09-21T11:50:48.268Z,22.10
2022-09-21T11:53:20.470Z,21.90
2022-09-21T11:55:52.586Z,21.80
2022-09-21T11:58:41.596Z,21.60
2022-09-21T12:01:36.640Z,21.40
2022-09-21T12:04:15.834Z,21.20
2022-09-21T12:07:03.880Z,21.10
2022-09-21T12:09:38.623Z,21.10
2022-09-21T12:12:19.376Z,21.10
2022-09-21T12:14:54.170Z,21.00
2022-09-21T12:17:37.144Z,20.90
2022-09-21T12:20:14.166Z,20.80
2022-09-21T12:22:45.780Z,20.80
2022-09-21T12:25:17.513Z,20.70
2022-09-21T12:27:51.645Z,20.70
2022-09-21T12:30:23.428Z,20.80
2022-09-21T12:32:54.028Z,20.80
2022-09-21T12:35:27.537Z,20.80
2022-09-21T12:37:59.812Z,20.80
2022-09-21T12:40:55.985Z,20.80
2022-09-21T12:43:44.458Z,20.90
2022-09-21T12:46:33.106Z,20.90
2022-09-21T12:49:14.351Z,20.90
2022-09-21T12:51:45.577Z,21.00
2022-09-21T12:54:19.641Z,21.10
2022-09-21T12:57:38.296Z,21.10
2022-09-21T13:00:18.494Z,21.10
2022-09-21T13:02:57.209Z,21.20
2022-09-21T13:06:00.979Z,21.20
2022-09-21T13:08:36.852Z,21.20
2022-09-21T13:11:08.063Z,21.30
2022-09-21T13:13:45.827Z,21.30
2022-09-21T13:16:33.889Z,21.20
2022-09-21T13:19:24.126Z,21.10
2022-09-21T13:22:13.888Z,21.10
2022-09-21T13:24:44.866Z,21.00
2022-09-21T13:27:13.912Z,20.80
2022-09-21T13:29:42.950Z,20.80
2022-09-21T13:32:16.089Z,20.70
2022-09-21T13:34:45.447Z,20.60
2022-09-21T13:37:14.995Z,20.50
2022-09-21T13:39:50.280Z,20.50
2022-09-21T13:42:35.470Z,20.40
2022-09-21T13:45:24.861Z,20.40
2022-09-21T13:48:00.241Z,20.40
2022-09-21T13:50:42.636Z,20.30
2022-09-21T13:53:23.519Z,20.30
2022-09-21T13:55:54.008Z,20.30
2022-09-21T13:58:34.095Z,20.30
2022-09-21T14:01:42.477Z,20.30
2022-09-21T14:04:17.989Z,20.30
2022-09-21T14:06:49.320Z,20.30
2022-09-21T14:09:34.095Z,20.40
2022-09-21T14:12:08.997Z,20.50
2022-09-21T14:14:38.332Z,20.40
2022-09-21T14:17:26.056Z,20.40
2022-09-21T14:19:53.004Z,20.40
2022-09-21T14:22:20.464Z,20.30
2022-09-21T14:24:51.259Z,20.30
2022-09-21T14:27:30.084Z,20.20
2022-09-21T14:30:07.965Z,20.20
2022-09-21T14:32:39.439Z,20.10
2022-09-21T14:35:14.442Z,20.00
2022-09-21T14:37:47.018Z,20.00
2022-09-21T14:40:25.017Z,20.00
2022-09-21T14:42:55.538Z,20.00
2022-09-21T14:45:45.358Z,20.00
2022-09-21T14:48:35.150Z,19.90
2022-09-21T14:51:21.026Z,19.90
2022-09-21T14:53:57.072Z,19.90
2022-09-21T14:57:05.302Z,19.80
2022-09-21T14:59:59.049Z,19.80
2022-09-21T15:02:29.495Z,19.80
2022-09-21T15:05:04.436Z,19.80
2022-09-21T15:07:59.897Z,19.80
2022-09-21T15:10:55.586Z,19.80
2022-09-21T15:13:41.706Z,19.70
2022-09-21T15:16:17.885Z,19.70
2022-09-21T15:18:51.388Z,19.70
2022-09-21T15:21:29.952Z,19.60
2022-09-21T15:23:59.259Z,19.70
2022-09-21T15:26:33.421Z,19.60
2022-09-21T15:29:10.957Z,19.60
2022-09-21T15:31:40.421Z,19.60
2022-09-21T15:34:09.526Z,19.50
2022-09-21T15:36:39.809Z,19.50
2022-09-21T15:39:18.483Z,19.40
2022-09-21T15:41:49.446Z,19.40
2022-09-21T15:44:23.045Z,19.30
2022-09-21T15:46:53.395Z,19.30
2022-09-21T15:49:24.953Z,19.20
2022-09-21T15:52:24.539Z,19.20
2022-09-21T15:55:09.302Z,19.20
2022-09-21T15:57:40.666Z,19.20
2022-09-21T16:00:22.582Z,19.20
2022-09-21T16:03:21.046Z,19.20
2022-09-21T16:05:50.733Z,19.10
2022-09-21T16:08:28.866Z,19.10
2022-09-21T16:11:19.055Z,19.10
2022-09-21T16:14:06.215Z,19.00
2022-09-21T16:16:33.451Z,19.00
2022-09-21T16:19:00.441Z,19.00
2022-09-21T16:21:32.916Z,19.00
2022-09-21T16:24:27.163Z,18.90
2022-09-21T16:27:02.685Z,18.90
2022-09-21T16:29:45.592Z,18.90
2022-09-21T16:32:18.677Z,18.90
2022-09-21T16:34:54.240Z,18.90
2022-09-21T16:37:28.714Z,18.80
2022-09-21T16:39:59.634Z,18.80
2022-09-21T16:42:32.976Z,18.80
2022-09-21T16:45:01.002Z,18.80
2022-09-21T16:47:28.948Z,18.70
2022-09-21T16:50:00.398Z,18.70
2022-09-21T16:52:29.045Z,18.70
2022-09-21T16:54:56.781Z,18.60
2022-09-21T16:57:26.191Z,18.60
2022-09-21T16:59:53.492Z,18.60
2022-09-21T17:02:21.198Z,18.50
2022-09-21T17:04:48.313Z,18.50
2022-09-21T17:07:17.091Z,18.40
2022-09-21T17:09:46.410Z,18.40
2022-09-21T17:12:18.220Z,18.30
2022-09-21T17:14:47.319Z,18.30
2022-09-21T17:17:22.501Z,18.30
2022-09-21T17:19:51.025Z,18.30
2022-09-21T17:22:18.494Z,18.20
2022-09-21T17:24:52.553Z,18.20
2022-09-21T17:27:25.340Z,18.20
2022-09-21T17:29:54.117Z,18.10
2022-09-21T17:32:23.208Z,18.10
2022-09-21T17:35:29.177Z,18.10
2022-09-21T17:37:56.621Z,18.10
2022-09-21T17:40:24.885Z,18.00
2022-09-21T17:42:54.570Z,18.00
2022-09-21T17:45:38.759Z,17.90
2022-09-21T17:48:12.617Z,17.90
2022-09-21T17:50:40.059Z,17.90
2022-09-21T17:53:28.265Z,17.90
2022-09-21T17:55:58.598Z,17.90
2022-09-21T17:58:31.395Z,17.80
2022-09-21T18:01:07.444Z,17.80
2022-09-21T18:03:41.055Z,17.80
2022-09-21T18:06:09.896Z,17.70
2022-09-21T18:08:38.608Z,17.70
2022-09-21T18:11:38.769Z,17.70
2022-09-21T18:14:11.719Z,17.60
2022-09-21T18:16:47.594Z,17.60
2022-09-21T18:19:32.697Z,17.60
2022-09-21T18:22:22.939Z,17.60
2022-09-21T18:24:52.093Z,17.50
2022-09-21T18:27:20.112Z,17.50
2022-09-21T18:29:47.369Z,17.50
2022-09-21T18:32:43.416Z,17.40
2022-09-21T18:35:28.986Z,17.40
2022-09-21T18:38:23.972Z,17.40
2022-09-21T18:41:29.921Z,17.40
2022-09-21T18:44:23.977Z,17.30
2022-09-21T18:46:53.713Z,17.30
2022-09-21T18:49:39.254Z,17.30
2022-09-21T18:52:09.337Z,17.30
2022-09-21T18:54:36.430Z,17.20
2022-09-21T18:57:13.253Z,17.20
2022-09-21T18:59:41.110Z,17.20
2022-09-21T19:02:14.911Z,17.10
2022-09-21T19:04:46.354Z,17.10
2022-09-21T19:07:25.239Z,17.10
2022-09-21T19:10:25.429Z,17.10
2022-09-21T19:13:00.281Z,17.10
2022-09-21T19:16:00.506Z,17.10
2022-09-21T19:18:46.545Z,17.00
2022-09-21T19:21:19.680Z,17.00
2022-09-21T19:23:53.442Z,17.00
2022-09-21T19:26:46.716Z,17.00
2022-09-21T19:29:52.898Z,16.90
2022-09-21T19:32:33.316Z,16.90
2022-09-21T19:35:13.863Z,16.90
2022-09-21T19:37:41.090Z,16.90
2022-09-21T19:40:08.780Z,16.80
2022-09-21T19:43:08.043Z,16.80
2022-09-21T19:45:54.897Z,16.80
2022-09-21T19:48:27.212Z,16.80
2022-09-21T19:50:57.309Z,16.80
2022-09-21T19:53:43.797Z,16.80
2022-09-21T19:56:34.810Z,16.80
2022-09-21T19:59:20.777Z,16.70
2022-09-21T20:02:01.567Z,16.70
2022-09-21T20:04:42.586Z,16.70
2022-09-21T20:07:50.308Z,16.70
2022-09-21T20:10:24.757Z,16.60
2022-09-21T20:12:54.712Z,16.60
2022-09-21T20:15:29.455Z,16.60
2022-09-21T20:18:08.009Z,16.60
2022-09-21T20:20:35.377Z,16.60
2022-09-21T20:23:02.947Z,16.50
2022-09-21T20:25:37.648Z,16.50
2022-09-21T20:28:05.215Z,16.50
2022-09-21T20:30:34.955Z,16.50
2022-09-21T20:33:17.160Z,16.50
2022-09-21T20:35:44.274Z,16.40
2022-09-21T20:38:11.661Z,16.40
2022-09-21T20:40:40.563Z,16.40
2022-09-21T20:43:09.824Z,16.30
2022-09-21T20:45:36.969Z,16.30
2022-09-21T20:48:15.990Z,16.30
2022-09-21T20:50:51.374Z,16.20
2022-09-21T20:53:19.320Z,16.20
2022-09-21T20:55:56.469Z,16.20
2022-09-21T20:58:24.700Z,16.10
2022-09-21T21:00:56.469Z,16.10
2022-09-21T21:03:25.754Z,16.00
2022-09-21T21:05:52.749Z,16.00
2022-09-21T21:08:19.770Z,16.00
2022-09-21T21:10:47.048Z,15.90
2022-09-21T21:13:14.020Z,15.90
2022-09-21T21:15:43.263Z,15.90
2022-09-21T21:18:12.455Z,15.80
2022-09-21T21:20:41.044Z,15.80
2022-09-21T21:23:08.447Z,15.70
2022-09-21T21:25:35.958Z,15.60
2022-09-21T21:28:03.582Z,15.60
2022-09-21T21:30:31.473Z,15.60
2022-09-21T21:32:58.723Z,15.60
2022-09-21T21:35:25.955Z,15.50
2022-09-21T21:37:52.982Z,15.50
2022-09-21T21:40:20.760Z,15.50
2022-09-21T21:42:47.932Z,15.50
2022-09-21T21:45:14.863Z,15.40
2022-09-21T21:47:41.951Z,15.40
2022-09-21T21:50:10.786Z,15.40
2022-09-21T21:52:38.083Z,15.30
2022-09-21T21:55:06.104Z,15.30
2022-09-21T21:57:33.439Z,15.30
2022-09-21T22:00:00.372Z,15.30
2022-09-21T22:02:29.262Z,15.20
2022-09-21T22:04:56.314Z,15.20
2022-09-21T22:07:23.419Z,15.20
2022-09-21T22:09:50.347Z,15.10
2022-09-21T22:12:17.648Z,15.10
2022-09-21T22:14:46.426Z,15.10
2022-09-21T22:17:13.620Z,15.10
2022-09-21T22:19:40.509Z,15.10
2022-09-21T22:22:07.506Z,15.10
2022-09-21T22:24:34.951Z,15.00
2022-09-21T22:27:01.980Z,14.90
2022-09-21T22:29:28.864Z,14.90
2022-09-21T22:31:55.979Z,14.90
2022-09-21T22:34:23.074Z,14.90
2022-09-21T22:36:50.681Z,14.90
2022-09-21T22:39:17.594Z,14.80
2022-09-21T22:41:44.553Z,14.80
2022-09-21T22:44:11.713Z,14.80
2022-09-21T22:46:39.358Z,14.80
2022-09-21T22:49:06.814Z,14.70
2022-09-21T22:51:34.563Z,14.70
2022-09-21T22:54:01.784Z,14.60
2022-09-21T22:56:30.831Z,14.60
2022-09-21T22:59:02.603Z,14.60
2022-09-21T23:01:38.729Z,14.60
2022-09-21T23:04:11.196Z,14.50
2022-09-21T23:06:42.865Z,14.50
2022-09-21T23:09:15.380Z,14.50
2022-09-21T23:11:47.485Z,14.50
2022-09-21T23:14:16.556Z,14.40
2022-09-21T23:16:43.765Z,14.40
2022-09-21T23:19:15.705Z,14.40
2022-09-21T23:21:49.714Z,14.40
2022-09-21T23:24:17.404Z,14.30
2022-09-21T23:26:44.778Z,14.30
2022-09-21T23:29:16.351Z,14.30
2022-09-21T23:31:45.877Z,14.30
2022-09-21T23:34:14.044Z,14.20
2022-09-21T23:36:41.945Z,14.30
2022-09-21T23:39:11.914Z,14.20
2022-09-21T23:41:39.381Z,14.20
2022-09-21T23:44:06.442Z,14.10
2022-09-21T23:46:37.269Z,14.10
2022-09-21T23:49:04.831Z,14.10
2022-09-21T23:51:32.098Z,14.10
2022-09-21T23:53:59.906Z,14.00
2022-09-21T23:56:28.572Z,14.00
2022-09-21T23:58:55.816Z,14.00
